Terminal Aerodrome Forecast
Issued by NWS

Home | Current Version | Previous Version | Text Only | Print | Product List | Glossary On
Versions: 1 2 3 4 5 6 7 8 9 10 11 12 13 14 15 16 17 18 19 20 21 22 23 24 25 26 27 28 29 30 31 32 33 34 35 36 37 38 39 40 41 42 43 44 45
000
FTAK31 PANC 231736
TAFACV
TAF
PACV 231736Z 2318/2418 VRB03KT P6SM SCT050 BKN070
     FM232100 04007KT P6SM VCSH BKN060
     FM240300 VRB03KT P6SM SCT060 WS020/02030KT
     FM240900 VRB03KT P6SM SKC WS010/02035KT=

USA.gov is the U.S. government's official web portal to all federal, state and local government web resources and services.